Time;durP1;ratioP1;P1;durP2;ratioP2;P2;SDS_P1;SDS_P2;PMS_P1;PMS_P2;Temp;Humidity;BMP_temperature;BMP_pressure;BME280_temperature;BME280_humidity;BME280_pressure;Samples;Min_cycle;Max_cycle;Signal;HPM_P1;HPM_P2
2022/10/28 00:00:31;;;;;;;;;0.00;0.00;;;;;;;;4752597;30;27882;-92
2022/10/28 00:02:58;;;;;;;;;0.00;0.00;;;;;;;;4735226;30;28466;-91
2022/10/28 00:05:24;;;;;;;;;0.00;0.00;;;;;;;;4750931;30;28532;-92
2022/10/28 00:07:49;;;;;;;;;0.00;0.00;;;;;;;;4751279;30;28462;-92
2022/10/28 00:10:14;;;;;;;;;0.00;0.00;;;;;;;;4734649;30;29182;-92
2022/10/28 00:12:39;;;;;;;;;0.00;0.00;;;;;;;;4738415;30;28735;-92
2022/10/28 00:15:05;;;;;;;;;0.00;0.00;;;;;;;;4757554;30;24323;-92
2022/10/28 00:17:30;;;;;;;;;0.00;0.00;;;;;;;;4745290;30;28555;-92
2022/10/28 00:19:55;;;;;;;;;0.00;0.00;;;;;;;;4752626;30;28031;-93
2022/10/28 00:22:21;;;;;;;;;0.00;0.00;;;;;;;;4751268;30;28567;-93
2022/10/28 00:27:21;;;;;;;;;0.00;0.00;;;;;;;;4426248;24;30469;-92
2022/10/28 00:29:46;;;;;;;;;0.00;0.00;;;;;;;;4736055;29;29719;-92
2022/10/28 00:32:12;;;;;;;;;0.00;0.00;;;;;;;;4767232;29;28117;-92
2022/10/28 00:34:37;;;;;;;;;0.00;0.00;;;;;;;;4746455;30;28413;-93
2022/10/28 00:37:02;;;;;;;;;0.00;0.00;;;;;;;;4734477;30;28625;-91
2022/10/28 00:39:27;;;;;;;;;0.00;0.00;;;;;;;;4751576;30;27877;-93
2022/10/28 00:41:56;;;;;;;;;0.00;0.00;;;;;;;;4743156;29;28815;-93
2022/10/28 00:44:46;;;;;;;;;0.00;0.00;;;;;;;;4737485;30;28557;-92
2022/10/28 00:47:16;;;;;;;;;0.00;0.00;;;;;;;;4749366;30;28904;-92
2022/10/28 00:49:41;;;;;;;;;0.00;0.00;;;;;;;;4752484;29;29515;-92
2022/10/28 00:52:09;;;;;;;;;0.00;0.00;;;;;;;;4766740;29;27820;-92
2022/10/28 00:54:36;;;;;;;;;0.00;0.00;;;;;;;;4751344;29;28410;-92
2022/10/28 00:57:03;;;;;;;;;0.00;0.00;;;;;;;;4753502;29;28608;-92
2022/10/28 00:59:31;;;;;;;;;0.00;0.00;;;;;;;;4768862;29;28080;-92
2022/10/28 01:01:57;;;;;;;;;0.00;0.00;;;;;;;;4755512;29;29546;-92
2022/10/28 01:04:22;;;;;;;;;0.00;0.00;;;;;;;;4769124;29;24805;-89
2022/10/28 01:06:47;;;;;;;;;10.00;10.00;;;;;;;;4777797;29;27742;-90
2022/10/28 01:09:13;;;;;;;;;0.00;0.00;;;;;;;;4769471;29;8888;-90
2022/10/28 01:11:44;;;;;;;;;0.00;0.00;;;;;;;;4768898;29;9016;-91
2022/10/28 01:14:16;;;;;;;;;0.00;0.00;;;;;;;;4769446;29;25088;-90
2022/10/28 01:16:44;;;;;;;;;0.00;0.00;;;;;;;;4766594;29;28505;-91
2022/10/28 01:19:28;;;;;;;;;0.00;0.00;;;;;;;;4733683;30;30131;-91
2022/10/28 01:21:59;;;;;;;;;0.00;0.00;;;;;;;;4734147;30;29268;-91
2022/10/28 01:24:42;;;;;;;;;0.00;0.00;;;;;;;;4732838;30;28399;-91
2022/10/28 01:27:23;;;;;;;;;0.00;0.00;;;;;;;;4755274;29;28532;-91
2022/10/28 01:29:48;;;;;;;;;0.00;0.00;;;;;;;;4767388;29;28390;-91
2022/10/28 01:32:16;;;;;;;;;0.00;0.00;;;;;;;;4749756;29;29365;-90
2022/10/28 01:34:49;;;;;;;;;0.00;0.00;;;;;;;;4749738;29;27890;-90
2022/10/28 01:37:14;;;;;;;;;0.00;0.00;;;;;;;;4766652;29;28450;-90
2022/10/28 01:39:48;;;;;;;;;0.00;0.00;;;;;;;;4750642;29;30700;-91
2022/10/28 01:42:31;;;;;;;;;0.00;0.00;;;;;;;;4748972;29;28773;-91
2022/10/28 01:45:08;;;;;;;;;0.00;0.00;;;;;;;;4767116;29;28058;-91
2022/10/28 01:47:37;;;;;;;;;0.00;0.00;;;;;;;;4766110;29;28463;-91
2022/10/28 01:50:02;;;;;;;;;0.00;0.00;;;;;;;;4750524;29;30243;-90
2022/10/28 01:52:29;;;;;;;;;0.00;0.00;;;;;;;;4766478;29;28414;-90
2022/10/28 01:54:57;;;;;;;;;0.00;0.00;;;;;;;;4768151;29;24155;-90
2022/10/28 01:57:24;;;;;;;;;0.00;0.00;;;;;;;;4753808;30;11734;-90
2022/10/28 01:59:50;;;;;;;;;0.00;0.00;;;;;;;;4751647;30;11791;-90
2022/10/28 02:02:16;;;;;;;;;0.00;0.00;;;;;;;;4780260;29;12478;-91
2022/10/28 02:04:41;;;;;;;;;0.00;0.00;;;;;;;;4769050;29;8886;-91
2022/10/28 02:07:07;;;;;;;;;0.00;0.00;;;;;;;;4785071;29;11654;-90
2022/10/28 02:09:46;;;;;;;;;0.00;0.00;;;;;;;;4783030;29;28619;-90
2022/10/28 02:12:17;;;;;;;;;0.00;0.00;;;;;;;;4767323;29;28412;-90
2022/10/28 02:15:02;;;;;;;;;0.00;0.00;;;;;;;;4769627;29;9905;-90
2022/10/28 02:17:44;;;;;;;;;0.00;0.00;;;;;;;;4765731;30;24968;-90
2022/10/28 02:20:32;;;;;;;;;0.00;0.00;;;;;;;;4744902;30;31032;-90
2022/10/28 02:23:16;;;;;;;;;0.00;0.00;;;;;;;;4750049;30;8878;-90
2022/10/28 02:25:41;;;;;;;;;0.00;0.00;;;;;;;;4766479;30;11650;-90
2022/10/28 02:28:07;;;;;;;;;0.00;0.00;;;;;;;;4758483;29;11738;-90
2022/10/28 02:30:33;;;;;;;;;0.00;0.00;;;;;;;;4765111;29;9553;-91
2022/10/28 02:33:00;;;;;;;;;0.00;0.00;;;;;;;;4750430;30;11743;-90
2022/10/28 02:35:28;;;;;;;;;0.00;0.00;;;;;;;;4767185;30;24958;-91
2022/10/28 02:37:55;;;;;;;;;0.00;0.00;;;;;;;;4766471;29;26888;-90
2022/10/28 02:40:23;;;;;;;;;0.00;0.00;;;;;;;;4769435;29;8853;-90
2022/10/28 02:42:54;;;;;;;;;0.00;0.00;;;;;;;;4768526;29;11754;-90
2022/10/28 02:45:21;;;;;;;;;0.00;0.00;;;;;;;;4766013;30;11703;-90
2022/10/28 02:47:50;;;;;;;;;0.00;0.00;;;;;;;;4750833;30;11776;-90
2022/10/28 02:50:17;;;;;;;;;0.00;0.00;;;;;;;;4751521;30;11761;-90
2022/10/28 02:52:46;;;;;;;;;0.00;0.00;;;;;;;;4750703;30;12805;-90
2022/10/28 02:55:12;;;;;;;;;0.00;0.00;;;;;;;;4767594;30;11757;-90
2022/10/28 02:57:42;;;;;;;;;0.00;0.00;;;;;;;;4766953;30;11675;-90
2022/10/28 03:00:09;;;;;;;;;0.00;0.00;;;;;;;;4770655;29;8858;-89
2022/10/28 03:02:35;;;;;;;;;0.00;0.00;;;;;;;;4784343;29;11665;-90
2022/10/28 03:05:00;;;;;;;;;0.00;0.00;;;;;;;;4785417;29;11685;-91
2022/10/28 03:07:25;;;;;;;;;0.00;0.00;;;;;;;;4784776;29;8881;-90
2022/10/28 03:09:50;;;;;;;;;0.00;0.00;;;;;;;;4769364;29;8889;-91
2022/10/28 03:12:16;;;;;;;;;0.00;0.00;;;;;;;;4768095;29;15697;-90
2022/10/28 03:14:41;;;;;;;;;0.00;0.00;;;;;;;;4785342;29;8988;-90
2022/10/28 03:17:06;;;;;;;;;0.00;0.00;;;;;;;;4768619;29;8882;-90
2022/10/28 03:19:31;;;;;;;;;0.00;0.00;;;;;;;;4769087;29;8874;-90
2022/10/28 03:21:57;;;;;;;;;0.00;0.00;;;;;;;;4784452;29;8886;-90
2022/10/28 03:24:22;;;;;;;;;0.00;0.00;;;;;;;;4784801;29;8861;-90
2022/10/28 03:26:47;;;;;;;;;0.00;0.00;;;;;;;;4768388;29;9614;-91
2022/10/28 03:29:12;;;;;;;;;0.00;0.00;;;;;;;;4750783;30;9705;-90
2022/10/28 03:31:37;;;;;;;;;0.00;0.00;;;;;;;;4751316;30;8872;-91
2022/10/28 03:34:03;;;;;;;;;0.00;0.00;;;;;;;;4746935;30;8887;-93
2022/10/28 03:36:28;;;;;;;;;0.00;0.00;;;;;;;;4750190;30;8945;-93
2022/10/28 03:38:53;;;;;;;;;0.00;0.00;;;;;;;;4766435;30;8965;-93
2022/10/28 03:41:18;;;;;;;;;0.00;0.00;;;;;;;;4750508;30;8956;-90
2022/10/28 03:43:43;;;;;;;;;0.00;0.00;;;;;;;;4749751;30;8980;-91
2022/10/28 03:46:09;;;;;;;;;0.00;0.00;;;;;;;;4766360;30;8856;-90
2022/10/28 03:48:34;;;;;;;;;0.00;0.00;;;;;;;;4749825;30;9675;-89
2022/10/28 03:50:59;;;;;;;;;0.00;0.00;;;;;;;;4761237;29;9003;-90
2022/10/28 03:53:24;;;;;;;;;0.00;0.00;;;;;;;;4767661;29;8870;-90
2022/10/28 03:55:50;;;;;;;;;0.00;0.00;;;;;;;;4782225;29;8960;-90
2022/10/28 03:58:16;;;;;;;;;0.00;0.00;;;;;;;;4765533;30;8840;-90
2022/10/28 04:00:41;;;;;;;;;0.00;0.00;;;;;;;;4750291;30;8868;-89
2022/10/28 04:03:06;;;;;;;;;0.00;0.00;;;;;;;;4764270;30;8844;-90
2022/10/28 04:05:31;;;;;;;;;0.00;0.00;;;;;;;;4748741;30;8908;-91
2022/10/28 04:07:56;;;;;;;;;0.00;0.00;;;;;;;;4750086;30;8900;-90
2022/10/28 04:10:22;;;;;;;;;0.00;0.00;;;;;;;;4766410;30;8845;-90
2022/10/28 04:12:47;;;;;;;;;0.00;0.00;;;;;;;;4749386;30;9709;-90
2022/10/28 04:15:12;;;;;;;;;0.00;0.00;;;;;;;;4750215;30;8875;-90
2022/10/28 04:17:37;;;;;;;;;0.00;0.00;;;;;;;;4765734;30;8848;-90
2022/10/28 04:20:03;;;;;;;;;0.00;0.00;;;;;;;;4765733;29;9015;-90
2022/10/28 04:22:28;;;;;;;;;0.00;0.00;;;;;;;;4749918;30;8860;-90
2022/10/28 04:24:53;;;;;;;;;0.00;0.00;;;;;;;;4750205;30;8897;-90
2022/10/28 04:27:18;;;;;;;;;0.00;0.00;;;;;;;;4770286;29;9622;-90
2022/10/28 04:29:44;;;;;;;;;0.00;0.00;;;;;;;;4767260;29;9676;-90
2022/10/28 04:32:09;;;;;;;;;0.00;0.00;;;;;;;;4783725;29;8943;-91
2022/10/28 04:34:34;;;;;;;;;0.00;0.00;;;;;;;;4760643;30;8924;-90
2022/10/28 04:36:59;;;;;;;;;0.00;0.00;;;;;;;;4769114;29;8876;-90
2022/10/28 04:39:24;;;;;;;;;0.00;0.00;;;;;;;;4768828;30;8961;-90
2022/10/28 04:41:50;;;;;;;;;0.00;0.00;;;;;;;;4769159;30;8848;-89
2022/10/28 04:44:15;;;;;;;;;0.00;0.00;;;;;;;;4752078;30;8896;-90
2022/10/28 04:46:40;;;;;;;;;0.00;0.00;;;;;;;;4769084;30;8860;-90
2022/10/28 04:49:05;;;;;;;;;0.00;0.00;;;;;;;;4755849;29;8982;-90
2022/10/28 04:51:30;;;;;;;;;0.00;0.00;;;;;;;;4770645;29;9027;-90
2022/10/28 04:53:56;;;;;;;;;0.00;0.00;;;;;;;;4770148;29;8901;-91
2022/10/28 04:56:21;;;;;;;;;0.00;0.00;;;;;;;;4787192;29;9660;-89
2022/10/28 04:58:46;;;;;;;;;0.00;0.00;;;;;;;;4769815;29;9053;-90
2022/10/28 05:01:11;;;;;;;;;0.00;0.00;;;;;;;;4770406;29;8893;-90
2022/10/28 05:03:36;;;;;;;;;0.00;0.00;;;;;;;;4768833;29;8947;-90
2022/10/28 05:06:02;;;;;;;;;0.00;0.00;;;;;;;;4770123;29;8857;-90
2022/10/28 05:08:27;;;;;;;;;0.00;0.00;;;;;;;;4770891;29;8915;-90
2022/10/28 05:10:52;;;;;;;;;0.00;0.00;;;;;;;;4768648;30;8852;-90
2022/10/28 05:13:17;;;;;;;;;0.00;0.00;;;;;;;;4751548;30;8911;-90
2022/10/28 05:15:43;;;;;;;;;0.00;0.00;;;;;;;;4768557;30;8864;-90
2022/10/28 05:18:08;;;;;;;;;0.00;0.00;;;;;;;;4767386;29;9034;-90
2022/10/28 05:20:33;;;;;;;;;0.00;0.00;;;;;;;;4751786;30;8883;-90
2022/10/28 05:22:59;;;;;;;;;0.00;0.00;;;;;;;;4768129;30;8910;-90
2022/10/28 05:25:24;;;;;;;;;0.00;0.00;;;;;;;;4768262;30;8852;-90
2022/10/28 05:27:49;;;;;;;;;0.00;0.00;;;;;;;;4775721;29;9024;-89
2022/10/28 05:30:14;;;;;;;;;0.00;0.00;;;;;;;;4785923;29;8854;-90
2022/10/28 05:32:40;;;;;;;;;0.00;0.00;;;;;;;;4768012;29;8970;-89
2022/10/28 05:35:05;;;;;;;;;0.00;0.00;;;;;;;;4783359;29;8893;-90
2022/10/28 05:37:31;;;;;;;;;0.00;0.00;;;;;;;;4784760;29;8913;-92
2022/10/28 05:39:56;;;;;;;;;0.00;0.00;;;;;;;;4786381;29;8858;-91
2022/10/28 05:42:21;;;;;;;;;0.00;0.00;;;;;;;;4785896;29;8886;-91
2022/10/28 05:44:46;;;;;;;;;0.00;0.00;;;;;;;;4785030;29;8850;-90
2022/10/28 05:47:11;;;;;;;;;0.00;0.00;;;;;;;;4784574;29;8913;-90
2022/10/28 05:49:37;;;;;;;;;0.00;0.00;;;;;;;;4782862;29;8882;-89
2022/10/28 05:52:03;;;;;;;;;0.00;0.00;;;;;;;;4781225;29;9618;-91
2022/10/28 05:54:28;;;;;;;;;0.00;0.00;;;;;;;;4785762;29;8850;-90
2022/10/28 05:56:53;;;;;;;;;0.00;0.00;;;;;;;;4785397;29;11714;-90
2022/10/28 05:59:18;;;;;;;;;0.00;0.00;;;;;;;;4784975;29;8846;-89
2022/10/28 06:01:43;;;;;;;;;0.00;0.00;;;;;;;;4769018;29;8979;-89
2022/10/28 06:04:09;;;;;;;;;0.00;0.00;;;;;;;;4768327;29;8893;-89
2022/10/28 06:06:34;;;;;;;;;0.00;0.00;;;;;;;;4784934;29;8869;-89
2022/10/28 06:08:59;;;;;;;;;0.00;0.00;;;;;;;;4768823;29;8884;-89
2022/10/28 06:11:24;;;;;;;;;0.00;0.00;;;;;;;;4769281;29;9652;-89
2022/10/28 06:13:50;;;;;;;;;0.00;0.00;;;;;;;;4784527;29;8877;-91
2022/10/28 06:16:15;;;;;;;;;0.00;0.00;;;;;;;;4768974;29;8853;-91
2022/10/28 06:18:40;;;;;;;;;0.00;0.00;;;;;;;;4768428;29;8878;-90
2022/10/28 06:21:05;;;;;;;;;0.00;0.00;;;;;;;;4758726;30;8910;-90
2022/10/28 06:23:30;;;;;;;;;0.00;0.00;;;;;;;;4750628;30;8872;-87
2022/10/28 06:25:59;;;;;;;;;0.00;0.00;;;;;;;;4766785;30;8852;-87
2022/10/28 06:28:25;;;;;;;;;0.00;0.00;;;;;;;;4775365;29;8880;-85
2022/10/28 06:30:50;;;;;;;;;0.00;0.00;;;;;;;;4783253;29;11701;-87
2022/10/28 06:33:15;;;;;;;;;0.00;0.00;;;;;;;;4776315;29;8908;-84
2022/10/28 06:35:40;;;;;;;;;0.00;0.00;;;;;;;;4765252;30;8876;-84
2022/10/28 06:38:05;;;;;;;;;0.00;0.00;;;;;;;;4773603;29;8908;-85
2022/10/28 06:40:31;;;;;;;;;0.00;0.00;;;;;;;;4784212;29;9051;-82
2022/10/28 06:42:59;;;;;;;;;0.00;0.00;;;;;;;;4767590;29;8991;-90
2022/10/28 06:45:25;;;;;;;;;0.00;0.00;;;;;;;;4768036;29;8964;-83
2022/10/28 06:47:53;;;;;;;;;3.00;3.00;;;;;;;;4776035;29;11705;-84
2022/10/28 06:50:18;;;;;;;;;0.00;0.00;;;;;;;;4776169;29;8883;-85
2022/10/28 06:52:44;;;;;;;;;0.00;0.00;;;;;;;;4775036;29;11726;-86
2022/10/28 06:55:09;;;;;;;;;0.00;0.00;;;;;;;;4775354;29;9121;-85
2022/10/28 06:57:34;;;;;;;;;0.00;0.00;;;;;;;;4772073;29;9445;-86
2022/10/28 06:59:59;;;;;;;;;0.00;0.00;;;;;;;;4777249;29;8868;-85
2022/10/28 07:02:24;;;;;;;;;0.00;0.00;;;;;;;;4773459;29;8988;-85
2022/10/28 07:04:49;;;;;;;;;0.00;0.00;;;;;;;;4775000;29;8854;-85
2022/10/28 07:07:15;;;;;;;;;0.00;0.00;;;;;;;;4773186;29;8900;-86
2022/10/28 07:09:42;;;;;;;;;0.00;0.00;;;;;;;;4770343;29;8844;-86
2022/10/28 07:12:07;;;;;;;;;0.00;0.00;;;;;;;;4785021;29;8897;-85
2022/10/28 07:14:33;;;;;;;;;0.00;0.00;;;;;;;;4756525;29;12438;-86
2022/10/28 07:16:58;;;;;;;;;0.00;0.00;;;;;;;;4773153;29;8881;-87
2022/10/28 07:19:24;;;;;;;;;0.00;0.00;;;;;;;;4764847;29;11753;-86
2022/10/28 07:21:49;;;;;;;;;0.00;0.00;;;;;;;;4767584;29;8884;-86
2022/10/28 07:24:14;;;;;;;;;0.00;0.00;;;;;;;;4773284;29;8913;-85
2022/10/28 07:26:39;;;;;;;;;0.00;0.00;;;;;;;;4774551;29;8967;-84
2022/10/28 07:29:04;;;;;;;;;0.00;0.00;;;;;;;;4775707;29;8993;-84
2022/10/28 07:31:30;;;;;;;;;0.00;0.00;;;;;;;;4774695;29;8869;-84
2022/10/28 07:33:55;;;;;;;;;0.00;0.00;;;;;;;;4767725;29;8886;-85
2022/10/28 07:36:20;;;;;;;;;2.00;2.00;;;;;;;;4768359;29;8888;-85
2022/10/28 07:38:50;;;;;;;;;0.00;0.00;;;;;;;;4769979;29;9610;-85
2022/10/28 07:41:16;;;;;;;;;1.00;1.00;;;;;;;;4768918;29;8868;-85
2022/10/28 07:43:41;;;;;;;;;0.00;0.00;;;;;;;;4773625;29;11723;-85
2022/10/28 07:46:06;;;;;;;;;0.00;0.00;;;;;;;;4774544;29;8899;-86
2022/10/28 07:48:32;;;;;;;;;0.00;0.00;;;;;;;;4776593;29;8873;-87
2022/10/28 07:51:01;;;;;;;;;0.00;0.00;;;;;;;;4771256;29;9748;-86
2022/10/28 07:53:26;;;;;;;;;0.00;0.00;;;;;;;;4756968;29;8901;-87
2022/10/28 07:55:58;;;;;;;;;0.00;0.00;;;;;;;;4775493;29;11847;-87
2022/10/28 07:58:24;;;;;;;;;0.25;0.25;;;;;;;;4768513;29;8868;-86
2022/10/28 08:00:49;;;;;;;;;0.00;0.00;;;;;;;;4771350;29;11720;-85
2022/10/28 08:03:14;;;;;;;;;0.00;0.00;;;;;;;;4775832;29;8914;-85
2022/10/28 08:05:39;;;;;;;;;0.00;0.00;;;;;;;;4775320;29;8913;-85
2022/10/28 08:08:04;;;;;;;;;0.00;0.00;;;;;;;;4767564;29;8868;-87
2022/10/28 08:10:29;;;;;;;;;0.00;0.00;;;;;;;;4772495;29;9621;-86
2022/10/28 08:12:56;;;;;;;;;0.00;0.00;;;;;;;;4771161;29;8997;-88
2022/10/28 08:15:22;;;;;;;;;0.00;0.00;;;;;;;;4762988;29;8853;-88
2022/10/28 08:17:51;;;;;;;;;0.00;0.00;;;;;;;;4777180;29;11701;-88
2022/10/28 08:20:16;;;;;;;;;0.00;0.00;;;;;;;;4774023;29;11786;-88
2022/10/28 08:22:42;;;;;;;;;0.00;0.00;;;;;;;;4778141;29;11722;-88
2022/10/28 08:25:07;;;;;;;;;0.00;0.00;;;;;;;;4773557;29;8856;-87
2022/10/28 08:27:32;;;;;;;;;0.00;0.00;;;;;;;;4774064;29;8881;-88
2022/10/28 08:29:57;;;;;;;;;1.00;1.00;;;;;;;;4769921;29;8905;-88
2022/10/28 08:32:23;;;;;;;;;0.00;0.00;;;;;;;;4772985;29;8874;-86
2022/10/28 08:34:48;;;;;;;;;0.00;0.00;;;;;;;;4774467;29;8918;-86
2022/10/28 08:37:14;;;;;;;;;0.00;0.00;;;;;;;;4779189;29;8846;-84
2022/10/28 08:39:40;;;;;;;;;0.00;0.00;;;;;;;;4768409;29;8852;-87
2022/10/28 08:42:21;;;;;;;;;0.00;0.00;;;;;;;;4778407;29;11796;-88
2022/10/28 08:44:46;;;;;;;;;0.00;0.00;;;;;;;;4777653;29;8834;-86
2022/10/28 08:47:17;;;;;;;;;0.00;0.00;;;;;;;;4770915;29;11823;-88
2022/10/28 08:49:44;;;;;;;;;0.00;0.00;;;;;;;;4755318;29;9996;-86
2022/10/28 08:52:13;;;;;;;;;0.00;0.00;;;;;;;;4776395;29;11669;-87
2022/10/28 08:54:49;;;;;;;;;0.00;0.00;;;;;;;;4772555;29;11705;-88
2022/10/28 08:57:20;;;;;;;;;0.00;0.00;;;;;;;;4776814;29;11713;-87
2022/10/28 08:59:46;;;;;;;;;0.00;0.00;;;;;;;;4777147;29;11841;-87
2022/10/28 09:02:21;;;;;;;;;0.00;0.00;;;;;;;;4782422;29;11694;-88
2022/10/28 09:04:47;;;;;;;;;0.00;0.00;;;;;;;;4774650;29;11682;-88
2022/10/28 09:07:17;;;;;;;;;0.00;0.00;;;;;;;;4774572;29;11678;-88
2022/10/28 09:09:43;;;;;;;;;0.00;0.00;;;;;;;;4755166;29;11704;-87
2022/10/28 09:12:18;;;;;;;;;0.00;0.00;;;;;;;;4770557;29;11781;-87
2022/10/28 09:14:47;;;;;;;;;0.00;0.00;;;;;;;;4774218;29;9906;-87
2022/10/28 09:17:12;;;;;;;;;0.00;0.00;;;;;;;;4774115;29;11718;-87
2022/10/28 09:19:51;;;;;;;;;0.00;0.00;;;;;;;;4774252;29;12592;-87
2022/10/28 09:22:20;;;;;;;;;0.00;0.00;;;;;;;;4776517;29;8834;-87
2022/10/28 09:24:46;;;;;;;;;0.00;0.00;;;;;;;;4769672;29;11678;-88
2022/10/28 09:27:18;;;;;;;;;0.00;0.00;;;;;;;;4769096;29;12570;-87
2022/10/28 09:29:59;;;;;;;;;0.00;0.00;;;;;;;;4756308;29;8872;-90
2022/10/28 09:32:24;;;;;;;;;0.00;0.00;;;;;;;;4758835;29;11702;-88
2022/10/28 09:34:53;;;;;;;;;0.00;0.00;;;;;;;;4769891;29;11754;-88
2022/10/28 09:37:39;;;;;;;;;0.00;0.00;;;;;;;;4773904;29;9593;-87
2022/10/28 09:40:18;;;;;;;;;0.00;0.00;;;;;;;;4760025;29;11718;-90
2022/10/28 09:42:48;;;;;;;;;0.00;0.00;;;;;;;;4775718;29;11736;-92
2022/10/28 09:45:18;;;;;;;;;0.00;0.00;;;;;;;;4762326;29;12489;-91
2022/10/28 09:47:48;;;;;;;;;0.33;0.00;;;;;;;;4754529;29;11707;-90
2022/10/28 09:50:16;;;;;;;;;22.67;22.67;;;;;;;;4756727;29;11695;-90
2022/10/28 09:53:01;;;;;;;;;0.00;0.00;;;;;;;;4761121;29;8886;-89
2022/10/28 09:55:27;;;;;;;;;0.00;0.00;;;;;;;;4768629;29;11678;-88
2022/10/28 09:57:52;;;;;;;;;0.00;0.00;;;;;;;;4773259;29;11775;-87
2022/10/28 10:00:18;;;;;;;;;0.00;0.00;;;;;;;;4772677;29;11722;-86
2022/10/28 10:02:43;;;;;;;;;0.00;0.00;;;;;;;;4782126;29;8866;-85
2022/10/28 10:05:13;;;;;;;;;0.00;0.00;;;;;;;;4769324;29;8864;-86
2022/10/28 10:07:42;;;;;;;;;0.00;0.00;;;;;;;;4772444;29;8903;-88
2022/10/28 10:10:22;;;;;;;;;0.00;0.00;;;;;;;;4773673;29;11820;-88
2022/10/28 10:12:52;;;;;;;;;0.00;0.00;;;;;;;;4760826;29;11733;-88
2022/10/28 10:15:29;;;;;;;;;0.00;0.00;;;;;;;;4771369;29;12399;-88
2022/10/28 10:17:56;;;;;;;;;0.00;0.00;;;;;;;;4759890;29;11791;-87
2022/10/28 10:20:21;;;;;;;;;0.00;0.00;;;;;;;;4771458;29;11650;-87
2022/10/28 10:22:47;;;;;;;;;0.00;0.00;;;;;;;;4773732;29;11762;-87
2022/10/28 10:25:19;;;;;;;;;0.00;0.00;;;;;;;;4773128;29;8848;-90
2022/10/28 10:27:56;;;;;;;;;0.00;0.00;;;;;;;;4751926;29;12519;-89
2022/10/28 10:30:23;;;;;;;;;0.00;0.00;;;;;;;;4775175;29;11686;-88
2022/10/28 10:32:48;;;;;;;;;0.00;0.00;;;;;;;;4771902;29;11902;-87
2022/10/28 10:35:24;;;;;;;;;1.00;1.00;;;;;;;;4772224;29;11824;-88
2022/10/28 10:37:50;;;;;;;;;0.00;0.00;;;;;;;;4771911;29;8875;-90
2022/10/28 10:40:35;;;;;;;;;0.00;0.00;;;;;;;;4776950;29;11852;-88
2022/10/28 10:43:18;;;;;;;;;0.00;0.00;;;;;;;;4756430;29;11906;-86
2022/10/28 10:46:02;;;;;;;;;0.00;0.00;;;;;;;;4781185;29;11662;-87
2022/10/28 10:48:28;;;;;;;;;0.00;0.00;;;;;;;;4774905;29;11740;-85
2022/10/28 10:50:54;;;;;;;;;0.00;0.00;;;;;;;;4769773;29;11788;-92
2022/10/28 10:53:21;;;;;;;;;0.00;0.00;;;;;;;;4772661;29;11733;-89
2022/10/28 10:55:49;;;;;;;;;0.00;0.00;;;;;;;;4766471;29;11675;-92
2022/10/28 10:58:15;;;;;;;;;0.00;0.00;;;;;;;;4756111;29;11698;-89
2022/10/28 11:00:46;;;;;;;;;0.00;0.00;;;;;;;;4753102;29;11706;-89
2022/10/28 11:03:23;;;;;;;;;0.00;0.00;;;;;;;;4771270;29;11735;-87
2022/10/28 11:05:53;;;;;;;;;0.00;0.00;;;;;;;;4772938;29;11721;-87
2022/10/28 11:08:42;;;;;;;;;0.00;0.00;;;;;;;;4760720;30;11698;-88
2022/10/28 11:11:13;;;;;;;;;0.00;0.00;;;;;;;;4763507;29;11631;-87
2022/10/28 11:13:38;;;;;;;;;0.00;0.00;;;;;;;;4767753;29;11687;-88
2022/10/28 11:16:05;;;;;;;;;0.00;0.00;;;;;;;;4770155;29;11729;-87
2022/10/28 11:18:38;;;;;;;;;0.00;0.00;;;;;;;;4777167;29;8837;-87
2022/10/28 11:21:18;;;;;;;;;0.00;0.00;;;;;;;;4774574;29;11790;-88
2022/10/28 11:23:43;;;;;;;;;0.00;0.00;;;;;;;;4752274;30;11722;-87
2022/10/28 11:26:11;;;;;;;;;0.00;0.00;;;;;;;;4776032;29;11735;-88
2022/10/28 11:28:54;;;;;;;;;0.00;0.00;;;;;;;;4771724;29;9335;-88
2022/10/28 11:31:38;;;;;;;;;0.00;0.00;;;;;;;;4773280;29;11673;-87
2022/10/28 11:34:22;;;;;;;;;0.00;0.00;;;;;;;;4773256;29;11670;-88
2022/10/28 11:36:47;;;;;;;;;0.00;0.00;;;;;;;;4755279;29;11710;-88
2022/10/28 11:39:18;;;;;;;;;0.00;0.00;;;;;;;;4765955;29;11725;-87
2022/10/28 11:42:02;;;;;;;;;0.00;0.00;;;;;;;;4750582;30;8876;-87
2022/10/28 11:44:30;;;;;;;;;0.00;0.00;;;;;;;;4750564;29;11694;-87
2022/10/28 11:47:01;;;;;;;;;0.00;0.00;;;;;;;;4774390;29;11713;-87
2022/10/28 11:49:36;;;;;;;;;0.00;0.00;;;;;;;;4778951;29;11714;-88
2022/10/28 11:52:10;;;;;;;;;0.00;0.00;;;;;;;;4780884;29;11679;-91
2022/10/28 11:54:42;;;;;;;;;1.00;1.00;;;;;;;;4780273;29;11706;-87
2022/10/28 11:57:15;;;;;;;;;0.00;0.00;;;;;;;;4771553;29;8869;-87
2022/10/28 11:59:49;;;;;;;;;0.00;0.00;;;;;;;;4777936;29;11707;-88
2022/10/28 12:02:20;;;;;;;;;0.00;0.00;;;;;;;;4778810;29;11698;-88
2022/10/28 12:04:48;;;;;;;;;0.00;0.00;;;;;;;;4763289;29;11727;-88
2022/10/28 12:07:16;;;;;;;;;0.00;0.00;;;;;;;;4767671;29;11798;-88
2022/10/28 12:09:47;;;;;;;;;0.00;0.00;;;;;;;;4776593;29;11691;-87
2022/10/28 12:12:28;;;;;;;;;0.00;0.00;;;;;;;;4763234;29;11737;-87
2022/10/28 12:15:00;;;;;;;;;0.00;0.00;;;;;;;;4751498;30;12602;-88
2022/10/28 12:17:49;;;;;;;;;0.00;0.00;;;;;;;;4756275;29;11682;-87
2022/10/28 12:20:23;;;;;;;;;0.00;0.00;;;;;;;;4746091;29;11675;-88
2022/10/28 12:22:51;;;;;;;;;0.00;0.00;;;;;;;;4775930;29;11686;-88
2022/10/28 12:25:22;;;;;;;;;0.00;0.00;;;;;;;;4773858;29;11815;-89
2022/10/28 12:27:49;;;;;;;;;0.00;0.00;;;;;;;;4778770;29;11756;-88
2022/10/28 12:30:20;;;;;;;;;0.00;0.00;;;;;;;;4767413;29;11697;-88
2022/10/28 12:32:46;;;;;;;;;0.00;0.00;;;;;;;;4775005;29;11852;-88
2022/10/28 12:35:17;;;;;;;;;0.00;0.00;;;;;;;;4753162;30;11686;-89
2022/10/28 12:37:46;;;;;;;;;0.00;0.00;;;;;;;;4765517;29;11694;-88
2022/10/28 12:40:20;;;;;;;;;0.00;0.00;;;;;;;;4777873;29;11683;-89
2022/10/28 12:42:57;;;;;;;;;0.00;0.00;;;;;;;;4761575;29;11704;-89
2022/10/28 12:45:22;;;;;;;;;0.00;0.00;;;;;;;;4770812;29;11748;-88
2022/10/28 12:47:58;;;;;;;;;0.00;0.00;;;;;;;;4765738;29;11690;-89
2022/10/28 12:50:33;;;;;;;;;0.00;0.00;;;;;;;;4781051;29;8931;-88
2022/10/28 12:53:01;;;;;;;;;0.00;0.00;;;;;;;;4759488;29;12531;-89
2022/10/28 12:55:26;;;;;;;;;0.00;0.00;;;;;;;;4773232;29;11812;-89
2022/10/28 12:58:03;;;;;;;;;0.00;0.00;;;;;;;;4782447;29;11793;-88
2022/10/28 13:00:30;;;;;;;;;0.00;0.00;;;;;;;;4779010;29;8880;-89
2022/10/28 13:03:14;;;;;;;;;0.00;0.00;;;;;;;;4760124;29;12747;-88
2022/10/28 13:05:50;;;;;;;;;0.00;0.00;;;;;;;;4782675;29;11887;-88
2022/10/28 13:08:15;;;;;;;;;0.00;0.00;;;;;;;;4763745;29;11686;-89
2022/10/28 13:10:52;;;;;;;;;0.00;0.00;;;;;;;;4770931;29;11800;-89
2022/10/28 13:13:20;;;;;;;;;0.00;0.00;;;;;;;;4770396;29;9221;-89
2022/10/28 13:15:55;;;;;;;;;0.00;0.00;;;;;;;;4773581;29;11696;-91
2022/10/28 13:18:37;;;;;;;;;0.00;0.00;;;;;;;;4767605;29;11671;-91
2022/10/28 13:21:02;;;;;;;;;3.67;3.67;;;;;;;;4772402;29;11697;-89
2022/10/28 13:23:40;;;;;;;;;0.00;0.00;;;;;;;;4778239;29;12433;-89
2022/10/28 13:26:20;;;;;;;;;0.00;0.00;;;;;;;;4760149;29;9077;-90
2022/10/28 13:28:46;;;;;;;;;0.00;0.00;;;;;;;;4775958;29;11651;-90
2022/10/28 13:31:14;;;;;;;;;0.00;0.00;;;;;;;;4772739;29;11755;-90
2022/10/28 13:33:45;;;;;;;;;0.00;0.00;;;;;;;;4762462;29;11690;-89
2022/10/28 13:36:16;;;;;;;;;0.00;0.00;;;;;;;;4772724;29;11732;-90
2022/10/28 13:38:47;;;;;;;;;0.00;0.00;;;;;;;;4765112;29;11720;-90
2022/10/28 13:41:25;;;;;;;;;0.00;0.00;;;;;;;;4776710;29;11835;-89
2022/10/28 13:43:50;;;;;;;;;0.00;0.00;;;;;;;;4757737;29;12225;-89
2022/10/28 13:46:34;;;;;;;;;0.00;0.00;;;;;;;;4750880;29;11719;-89
2022/10/28 13:49:29;;;;;;;;;0.00;0.00;;;;;;;;4781704;29;8838;-90
2022/10/28 13:52:06;;;;;;;;;0.00;0.00;;;;;;;;4676527;30;11615;-90
2022/10/28 13:54:31;;;;;;;;;0.00;0.00;;;;;;;;4688276;30;11617;-90
2022/10/28 13:57:10;;;;;;;;;0.00;0.00;;;;;;;;4674879;30;11620;-93
2022/10/28 13:59:58;;;;;;;;;0.00;0.00;;;;;;;;4685987;30;8815;-90
2022/10/28 14:02:36;;;;;;;;;0.00;0.00;;;;;;;;4685034;30;11615;-86
2022/10/28 14:05:03;;;;;;;;;0.00;0.00;;;;;;;;4684708;30;11647;-89
2022/10/28 14:07:32;;;;;;;;;0.00;0.00;;;;;;;;4673920;30;11616;-90
2022/10/28 14:10:11;;;;;;;;;0.00;0.00;;;;;;;;4678974;30;11601;-89
2022/10/28 14:12:39;;;;;;;;;0.00;0.00;;;;;;;;4685025;30;11616;-89
2022/10/28 14:15:16;;;;;;;;;0.00;0.00;;;;;;;;4664609;30;11613;-90
2022/10/28 14:17:44;;;;;;;;;0.00;0.00;;;;;;;;4681662;30;11613;-89
2022/10/28 14:20:22;;;;;;;;;0.00;0.00;;;;;;;;4678380;30;11751;-89
2022/10/28 14:22:47;;;;;;;;;0.00;0.00;;;;;;;;4691318;30;12368;-89
2022/10/28 14:25:30;;;;;;;;;0.00;0.00;;;;;;;;4676898;30;11653;-90
2022/10/28 14:27:56;;;;;;;;;0.00;0.00;;;;;;;;4713212;29;8880;-90
2022/10/28 14:30:21;;;;;;;;;0.00;0.00;;;;;;;;4770590;29;11678;-89
2022/10/28 14:32:58;;;;;;;;;0.00;0.00;;;;;;;;4779961;29;8888;-90
2022/10/28 14:35:30;;;;;;;;;0.00;0.00;;;;;;;;4770319;29;9623;-90
2022/10/28 14:37:58;;;;;;;;;0.00;0.00;;;;;;;;4768188;29;11660;-90
2022/10/28 14:40:35;;;;;;;;;0.00;0.00;;;;;;;;4768947;29;12298;-89
2022/10/28 14:43:00;;;;;;;;;0.00;0.00;;;;;;;;4750678;29;11679;-89
2022/10/28 14:45:44;;;;;;;;;0.00;0.00;;;;;;;;4777367;29;11719;-89
2022/10/28 14:48:35;;;;;;;;;0.00;0.00;;;;;;;;4771672;29;10055;-90
2022/10/28 14:51:01;;;;;;;;;0.00;0.00;;;;;;;;4710599;30;11700;-91
2022/10/28 14:53:29;;;;;;;;;0.00;0.00;;;;;;;;4697737;30;12363;-94
2022/10/28 14:56:00;;;;;;;;;0.00;0.00;;;;;;;;4706664;30;8843;-91
2022/10/28 14:58:27;;;;;;;;;0.00;0.00;;;;;;;;4698993;30;11623;-88
2022/10/28 15:00:59;;;;;;;;;0.00;0.00;;;;;;;;4703769;30;11706;-89